Time;durP1;ratioP1;P1;durP2;ratioP2;P2;SDS_P1;SDS_P2;PMS_P1;PMS_P2;Temp;Humidity;BMP_temperature;BMP_pressure;BME280_temperature;BME280_humidity;BME280_pressure;Samples;Min_cycle;Max_cycle;Signal;HPM_P1;HPM_P2
2023/01/01 00:00:47;;;;;;;;;1.00;1.00;;;;;16.84;46.99;100798.38;2112877;27;46938;-60
2023/01/01 00:01:47;;;;;;;;;7.25;6.00;;;;;16.84;47.00;100802.88;2100822;28;47107;-63
2023/01/01 00:02:47;;;;;;;;;6.67;6.00;;;;;16.84;47.22;100809.09;2095678;28;46218;-62
2023/01/01 00:03:49;;;;;;;;;6.00;5.00;;;;;16.84;47.15;100809.09;2102088;28;46175;-62
2023/01/01 00:04:50;;;;;;;;;5.50;5.50;;;;;16.84;47.62;100792.13;2104682;28;46533;-61
2023/01/01 00:05:50;;;;;;;;;7.00;5.67;;;;;16.84;47.62;100782.28;2104581;28;46248;-62
2023/01/01 00:06:50;;;;;;;;;6.33;6.33;;;;;16.83;47.50;100796.63;2103413;28;46871;-61
2023/01/01 00:07:51;;;;;;;;;4.67;4.67;;;;;16.82;47.60;100800.25;2103541;28;46371;-63
2023/01/01 00:10:28;;;;;;;;;4.50;4.50;;;;;16.81;47.88;100793.16;2089153;28;46584;-62
2023/01/01 00:11:28;;;;;;;;;6.75;5.00;;;;;16.82;47.50;100794.03;2095555;28;46673;-62
2023/01/01 00:12:31;;;;;;;;;4.33;4.33;;;;;16.83;48.00;100793.09;2095640;28;46678;-63
2023/01/01 00:13:33;;;;;;;;;5.75;4.75;;;;;16.83;47.65;100796.63;2096880;28;45861;-62
2023/01/01 00:14:34;;;;;;;;;4.00;4.00;;;;;16.82;47.71;100797.56;2097889;28;47079;-62
2023/01/01 00:15:34;;;;;;;;;5.33;4.67;;;;;16.81;47.85;100797.66;2105212;28;46522;-63
2023/01/01 00:16:34;;;;;;;;;4.67;4.67;;;;;16.80;47.75;100780.69;2088071;28;45841;-63
2023/01/01 00:17:35;;;;;;;;;4.67;4.67;;;;;16.80;47.91;100806.63;2088269;28;46263;-63
2023/01/01 00:18:36;;;;;;;;;4.33;4.33;;;;;16.80;47.77;100796.78;2096973;28;46188;-62
2023/01/01 00:19:39;;;;;;;;;3.50;3.50;;;;;16.79;48.23;100794.19;2101544;27;46540;-62
2023/01/01 00:20:39;;;;;;;;;3.25;3.25;;;;;16.79;47.93;100795.03;2104740;28;46749;-62
2023/01/01 00:21:39;;;;;;;;;3.67;3.67;;;;;16.79;48.47;100810.25;2098897;27;45444;-62
2023/01/01 00:22:40;;;;;;;;;5.00;4.00;;;;;16.80;48.09;100809.31;2097670;28;46496;-62
2023/01/01 00:23:40;;;;;;;;;4.00;4.00;;;;;16.80;48.63;100795.91;2111807;27;46344;-63
2023/01/01 00:24:41;;;;;;;;;4.33;4.33;;;;;16.79;48.65;100795.03;2111698;27;46166;-62
2023/01/01 00:25:41;;;;;;;;;4.33;4.00;;;;;16.81;48.46;100794.97;2104854;28;46846;-62
2023/01/01 00:26:41;;;;;;;;;5.00;5.00;;;;;16.80;48.25;100798.59;2110781;27;46483;-62
2023/01/01 00:27:42;;;;;;;;;3.33;3.33;;;;;16.80;48.48;100795.91;2110154;27;46309;-61
2023/01/01 00:28:44;;;;;;;;;4.00;4.00;;;;;16.81;48.49;100797.66;2104651;28;46440;-62
2023/01/01 00:29:45;;;;;;;;;5.00;5.00;;;;;16.80;48.47;100803.94;2108750;27;46933;-61
2023/01/01 00:30:45;;;;;;;;;3.67;3.67;;;;;16.80;48.39;100790.56;2104337;28;46706;-62
2023/01/01 00:31:45;;;;;;;;;4.00;3.67;;;;;16.78;48.54;100793.31;2103988;28;46590;-61
2023/01/01 00:32:46;;;;;;;;;4.00;4.00;;;;;16.77;48.45;100808.53;2111381;27;46807;-61
2023/01/01 00:33:50;;;;;;;;;3.67;3.33;;;;;16.79;48.73;100799.53;2113597;27;46732;-60
2023/01/01 00:34:50;;;;;;;;;4.50;4.50;;;;;16.77;48.50;100792.44;2111950;27;46522;-62
2023/01/01 00:35:51;;;;;;;;;3.00;3.00;;;;;16.79;48.76;100794.19;2101935;28;48041;-62
2023/01/01 00:36:51;;;;;;;;;4.67;4.67;;;;;16.79;48.81;100816.50;2096601;28;46050;-61
2023/01/01 00:37:52;;;;;;;;;5.00;5.00;;;;;16.77;48.41;100791.56;2102528;28;46819;-61
2023/01/01 00:38:53;;;;;;;;;3.00;3.00;;;;;16.78;48.85;100804.03;2105652;28;46839;-62
2023/01/01 00:39:54;;;;;;;;;4.67;4.67;;;;;16.78;48.73;100796.00;2113847;27;46114;-61
2023/01/01 00:40:54;;;;;;;;;4.00;4.00;;;;;16.79;49.28;100794.19;2112468;27;46591;-61
2023/01/01 00:41:54;;;;;;;;;4.00;3.00;;;;;16.79;48.99;100800.41;2113824;27;46406;-62
2023/01/01 00:42:55;;;;;;;;;5.00;5.00;;;;;16.78;49.18;100793.31;2112622;27;44956;-61
2023/01/01 00:43:55;;;;;;;;;5.00;4.00;;;;;16.79;48.77;100795.03;2112228;27;46854;-61
2023/01/01 00:44:56;;;;;;;;;4.67;4.00;;;;;16.78;49.11;100796.00;2114596;27;46228;-62
2023/01/01 00:45:57;;;;;;;;;4.67;3.00;;;;;16.79;49.21;100788.81;2112433;27;45973;-63
2023/01/01 00:46:57;;;;;;;;;4.00;4.00;;;;;16.78;49.58;100793.31;2113017;27;46913;-61
2023/01/01 00:47:57;;;;;;;;;4.00;4.00;;;;;16.77;49.49;100797.81;2114049;27;45944;-61
2023/01/01 00:48:58;;;;;;;;;4.33;4.33;;;;;16.79;49.08;100796.84;2109733;27;46868;-62
2023/01/01 00:49:58;;;;;;;;;5.00;5.00;;;;;16.78;49.39;100785.28;2105570;27;46642;-61
2023/01/01 00:50:58;;;;;;;;;6.00;5.00;;;;;16.78;49.19;100782.59;2108365;27;46382;-64
2023/01/01 00:51:59;;;;;;;;;4.00;4.00;;;;;16.78;49.11;100793.31;2106876;27;46340;-61
2023/01/01 00:52:59;;;;;;;;;4.00;4.00;;;;;16.78;49.47;100790.63;2114112;27;45719;-62
2023/01/01 00:53:59;;;;;;;;;5.67;5.33;;;;;16.78;49.70;100790.63;2102956;28;47229;-61
2023/01/01 00:55:00;;;;;;;;;5.33;4.00;;;;;16.80;49.40;100790.56;2103596;28;46512;-62
2023/01/01 00:56:00;;;;;;;;;5.00;5.00;;;;;16.79;49.58;100784.31;2100861;28;46804;-63
2023/01/01 00:57:00;;;;;;;;;5.00;5.00;;;;;16.79;49.48;100794.19;2096169;28;46393;-62
2023/01/01 00:58:01;;;;;;;;;9.67;7.00;;;;;16.77;49.48;100791.56;2087809;28;46220;-62
2023/01/01 00:59:01;;;;;;;;;5.00;5.00;;;;;16.77;49.49;100818.38;2087543;28;46804;-62
2023/01/01 01:00:03;;;;;;;;;4.67;3.67;;;;;16.77;49.65;100788.88;2097437;28;46603;-63
2023/01/01 01:01:03;;;;;;;;;6.75;6.75;;;;;16.76;49.71;100797.84;2104900;28;47552;-61
2023/01/01 01:02:04;;;;;;;;;10.00;7.00;;;;;16.75;49.94;100794.28;2103097;28;46223;-63
2023/01/01 01:03:05;;;;;;;;;4.00;4.00;;;;;16.76;49.41;100787.13;2101987;28;46766;-62
2023/01/01 01:04:05;;;;;;;;;7.33;5.67;;;;;16.74;49.56;100792.56;2104258;28;45804;-62
2023/01/01 01:05:06;;;;;;;;;6.00;6.00;;;;;16.74;49.65;100786.31;2103364;28;46523;-62
2023/01/01 01:06:08;;;;;;;;;1.75;1.75;;;;;16.73;49.65;100776.56;2105136;28;45635;-62
2023/01/01 01:07:09;;;;;;;;;6.25;6.25;;;;;16.73;49.76;100782.78;2103367;28;46836;-61
2023/01/01 01:08:09;;;;;;;;;5.00;5.00;;;;;16.74;50.07;100786.31;2103500;28;46254;-60
2023/01/01 01:09:09;;;;;;;;;2.00;2.00;;;;;16.74;49.87;100779.16;2104511;28;46663;-62
2023/01/01 01:10:10;;;;;;;;;7.67;7.67;;;;;16.74;49.93;100776.47;2103442;28;46236;-62
2023/01/01 01:11:17;;;;;;;;;5.25;3.75;;;;;16.75;50.13;100783.56;2103448;28;46418;-61
2023/01/01 01:12:17;;;;;;;;;6.00;5.50;;;;;16.74;49.87;100789.88;2104670;28;46219;-61
2023/01/01 01:13:18;;;;;;;;;5.00;5.00;;;;;16.75;49.98;100791.63;2103436;28;46497;-61
2023/01/01 01:14:19;;;;;;;;;6.75;6.25;;;;;16.74;50.11;100800.59;2104190;27;46694;-62
2023/01/01 01:15:19;;;;;;;;;6.33;6.33;;;;;16.75;50.00;100788.94;2103912;28;46426;-61
2023/01/01 01:16:25;;;;;;;;;7.00;5.33;;;;;16.75;50.03;100806.81;2100557;28;46069;-62
2023/01/01 01:17:25;;;;;;;;;4.00;4.00;;;;;16.73;50.29;100798.00;2096330;28;46079;-62
2023/01/01 01:18:26;;;;;;;;;7.00;7.00;;;;;16.72;50.09;100797.13;2096205;28;46616;-62
2023/01/01 01:19:26;;;;;;;;;4.00;4.00;;;;;16.72;50.32;100810.53;2096780;28;45669;-61
2023/01/01 01:20:26;;;;;;;;;5.00;5.00;;;;;16.71;50.09;100798.06;2079556;28;46572;-63
2023/01/01 01:21:29;;;;;;;;;8.00;6.00;;;;;16.71;50.41;100791.84;2074582;28;45566;-61
2023/01/01 01:22:29;;;;;;;;;6.50;5.50;;;;;16.71;50.38;100805.22;2088221;28;46833;-61
2023/01/01 01:23:30;;;;;;;;;4.67;4.67;;;;;16.71;50.44;100792.72;2096265;28;46483;-62
2023/01/01 01:24:31;;;;;;;;;6.67;6.67;;;;;16.70;50.69;100799.00;2087678;28;47166;-62
2023/01/01 01:25:31;;;;;;;;;7.00;6.67;;;;;16.71;50.54;100799.88;2099202;28;45911;-62
2023/01/01 01:26:32;;;;;;;;;4.67;4.67;;;;;16.71;50.82;100799.88;2110239;27;45779;-62
2023/01/01 01:27:33;;;;;;;;;5.00;5.00;;;;;16.72;50.41;100812.34;2110593;27;46561;-62
2023/01/01 01:28:33;;;;;;;;;4.33;2.00;;;;;16.72;50.43;100806.97;2112993;27;46259;-62
2023/01/01 01:29:34;;;;;;;;;4.67;4.67;;;;;16.71;50.59;100810.59;2113853;27;46378;-61
2023/01/01 01:30:36;;;;;;;;;6.33;6.00;;;;;16.71;50.65;100807.91;2113994;27;46225;-62
2023/01/01 01:31:37;;;;;;;;;5.00;5.00;;;;;16.71;50.88;100813.28;2112186;27;46287;-63
2023/01/01 01:32:37;;;;;;;;;5.33;5.00;;;;;16.71;50.91;100807.91;2112221;27;46307;-62
2023/01/01 01:33:38;;;;;;;;;3.67;2.67;;;;;16.70;50.90;100806.19;2114320;27;46429;-62
2023/01/01 01:34:38;;;;;;;;;5.00;4.00;;;;;16.70;50.84;100804.38;2112015;27;46002;-62
2023/01/01 01:35:39;;;;;;;;;5.67;5.33;;;;;16.70;51.08;100801.69;2113082;27;46155;-61
2023/01/01 01:36:39;;;;;;;;;7.00;5.00;;;;;16.70;50.91;100809.72;2106357;27;46248;-62
2023/01/01 01:37:39;;;;;;;;;4.33;4.00;;;;;16.70;51.10;100816.91;2100716;28;47076;-63
2023/01/01 01:38:40;;;;;;;;;4.00;3.33;;;;;16.68;51.04;100800.91;2105004;27;46145;-63
2023/01/01 01:39:41;;;;;;;;;5.67;5.67;;;;;16.69;51.20;100808.00;2112202;27;46917;-61
2023/01/01 01:40:42;;;;;;;;;7.00;6.00;;;;;16.69;51.38;100816.03;2113829;27;46335;-62
2023/01/01 01:41:42;;;;;;;;;6.00;6.00;;;;;16.69;51.06;100815.16;2104710;28;46525;-62
2023/01/01 01:42:47;;;;;;;;;7.33;7.33;;;;;16.69;51.33;100815.16;2102983;28;46444;-62
2023/01/01 01:43:59;;;;;;;;;5.00;4.75;;;;;16.68;51.34;100822.31;2112336;27;46946;-62
2023/01/01 01:45:01;;;;;;;;;9.75;6.75;;;;;16.69;51.35;100823.19;2114104;27;46616;-63
2023/01/01 01:46:10;;;;;;;;;4.25;4.00;;;;;16.68;51.64;100827.69;2112683;27;46454;-63
2023/01/01 01:47:25;;;;;;;;;4.75;3.25;;;;;16.68;51.39;100825.00;2112417;27;46641;-62
2023/01/01 01:48:26;;;;;;;;;5.00;4.00;;;;;16.67;51.62;100834.00;2113956;27;46927;-63
2023/01/01 01:49:31;;;;;;;;;5.00;5.00;;;;;16.68;51.78;100838.41;2112554;27;45624;-62
2023/01/01 01:50:36;;;;;;;;;4.00;4.00;;;;;16.68;51.63;100840.22;2114095;27;45133;-62
2023/01/01 01:51:39;;;;;;;;;5.25;5.00;;;;;16.68;51.69;100841.09;2097055;28;46923;-61
2023/01/01 01:52:50;;;;;;;;;5.75;5.75;;;;;16.68;51.62;100841.09;2114051;27;46479;-62
2023/01/01 01:53:54;;;;;;;;;6.00;3.75;;;;;16.67;51.47;100834.00;2112770;27;46049;-62
2023/01/01 01:54:56;;;;;;;;;6.25;5.50;;;;;16.68;51.74;100834.84;2121685;27;46847;-61
2023/01/01 01:56:01;;;;;;;;;6.25;5.75;;;;;16.68;51.56;100833.03;2118137;27;46558;-62
2023/01/01 01:57:06;;;;;;;;;6.00;6.00;;;;;16.67;51.71;100841.13;2110272;27;45722;-61
2023/01/01 01:58:10;;;;;;;;;5.00;4.50;;;;;16.67;51.75;100836.66;2113726;27;45629;-62
2023/01/01 01:59:10;;;;;;;;;4.00;4.00;;;;;16.67;51.80;100838.44;2112965;27;46457;-62
2023/01/01 02:00:12;;;;;;;;;6.00;5.00;;;;;16.66;51.81;100842.06;2113560;27;46344;-61
2023/01/01 02:01:12;;;;;;;;;4.75;3.75;;;;;16.66;51.82;100842.06;2112493;27;46317;-61
2023/01/01 02:02:28;;;;;;;;;4.33;4.33;;;;;16.66;52.12;100848.28;2112615;27;46440;-61
2023/01/01 02:03:56;;;;;;;;;6.75;6.00;;;;;16.68;52.08;100840.22;2109966;27;46476;-63
2023/01/01 02:04:57;;;;;;;;;5.00;4.00;;;;;16.66;52.20;100848.28;2113594;27;46850;-61
2023/01/01 02:05:58;;;;;;;;;8.00;6.75;;;;;16.66;52.35;100840.25;2113891;27;46352;-62
2023/01/01 02:06:59;;;;;;;;;6.00;5.75;;;;;16.66;52.24;100850.09;2113181;27;46752;-62
2023/01/01 02:08:01;;;;;;;;;5.33;4.00;;;;;16.66;51.99;100852.78;2113592;27;46474;-62
2023/01/01 02:09:04;;;;;;;;;6.75;5.25;;;;;16.65;52.21;100857.28;2113788;27;46220;-63
2023/01/01 02:10:05;;;;;;;;;5.25;5.25;;;;;16.64;52.55;100850.19;2108694;27;47130;-62
2023/01/01 02:11:05;;;;;;;;;7.00;7.00;;;;;16.64;52.42;100849.28;2087297;28;46155;-63
2023/01/01 02:12:06;;;;;;;;;2.67;2.67;;;;;16.65;52.58;100845.69;2087403;28;45576;-62
2023/01/01 02:13:06;;;;;;;;;5.33;4.33;;;;;16.63;52.54;100848.41;2105151;28;46139;-62
2023/01/01 02:14:07;;;;;;;;;7.00;6.00;;;;;16.63;52.40;100847.53;2105732;28;45968;-63
2023/01/01 02:15:08;;;;;;;;;8.67;8.00;;;;;16.64;52.63;100849.28;2111318;27;46221;-61
2023/01/01 02:16:19;;;;;;;;;9.50;8.50;;;;;16.63;52.53;100848.41;2112296;27;46796;-62
2023/01/01 02:17:46;;;;;;;;;9.00;7.25;;;;;16.64;52.65;100846.59;2105261;28;46073;-62
2023/01/01 02:18:55;;;;;;;;;5.75;5.75;;;;;16.64;52.94;100852.84;2096861;28;46293;-62
2023/01/01 02:20:29;;;;;;;;;6.50;6.50;;;;;16.64;52.49;100849.28;2102453;28;46519;-61
2023/01/01 02:21:36;;;;;;;;;4.00;4.00;;;;;16.63;52.67;100858.25;2101706;28;46815;-63
2023/01/01 02:23:07;;;;;;;;;5.00;5.00;;;;;16.63;52.77;100868.97;2105048;28;46201;-62
2023/01/01 02:24:26;;;;;;;;;4.75;4.75;;;;;16.62;52.81;100867.22;2113682;27;46460;-62
2023/01/01 02:26:01;;;;;;;;;6.33;6.33;;;;;16.62;52.66;100867.22;2113844;27;46877;-61
2023/01/01 02:27:16;;;;;;;;;6.50;6.00;;;;;16.60;52.80;100863.75;2113465;27;46795;-61
2023/01/01 02:28:22;;;;;;;;;6.25;5.75;;;;;16.60;52.97;100859.28;2111289;27;46810;-61
2023/01/01 02:29:39;;;;;;;;;4.25;4.25;;;;;16.60;53.14;100858.41;2111573;27;46843;-62
2023/01/01 02:30:44;;;;;;;;;5.75;5.75;;;;;16.60;53.22;100869.13;2113584;27;45966;-62
2023/01/01 02:32:22;;;;;;;;;7.00;6.00;;;;;16.58;52.93;100866.50;2112265;27;45458;-61
2023/01/01 02:33:25;;;;;;;;;6.75;5.75;;;;;16.58;53.02;100866.50;2070930;28;45882;-62
2023/01/01 02:34:32;;;;;;;;;4.00;4.00;;;;;16.59;53.42;100868.25;2070821;28;46522;-62
2023/01/01 02:35:37;;;;;;;;;5.25;5.25;;;;;16.57;53.09;100867.44;2070157;28;46542;-62
2023/01/01 02:36:45;;;;;;;;;6.00;6.00;;;;;16.57;53.04;100864.78;2071280;28;46378;-61
2023/01/01 02:37:49;;;;;;;;;5.75;5.25;;;;;16.57;53.20;100858.53;2074174;28;47282;-61
2023/01/01 02:38:53;;;;;;;;;5.50;4.50;;;;;16.58;53.38;100860.28;2078059;28;46291;-62
2023/01/01 02:39:57;;;;;;;;;6.00;4.75;;;;;16.58;53.56;100868.31;2054235;28;46594;-62
2023/01/01 02:41:04;;;;;;;;;7.00;5.00;;;;;16.58;53.53;100860.28;2052150;28;46305;-62
2023/01/01 02:42:06;;;;;;;;;6.50;6.00;;;;;16.58;53.74;100868.31;2063566;28;46731;-62
2023/01/01 02:43:07;;;;;;;;;5.25;5.25;;;;;16.58;53.86;100879.03;2078608;28;46769;-62
2023/01/01 02:44:09;;;;;;;;;5.33;5.33;;;;;16.57;53.66;100880.84;2074469;28;46523;-62
2023/01/01 02:45:10;;;;;;;;;5.00;5.00;;;;;16.57;53.43;100880.84;2071132;28;46897;-62
2023/01/01 02:46:11;;;;;;;;;5.25;5.00;;;;;16.56;53.84;100875.56;2071068;28;46866;-62
2023/01/01 02:47:15;;;;;;;;;8.00;5.75;;;;;16.58;53.62;100879.03;2071130;28;46748;-62
2023/01/01 02:48:40;;;;;;;;;5.50;5.50;;;;;16.58;53.82;100882.59;2071230;28;45886;-63
2023/01/01 02:49:50;;;;;;;;;5.25;5.25;;;;;16.59;53.43;100889.69;2079012;28;46559;-62
2023/01/01 02:50:50;;;;;;;;;6.50;4.75;;;;;16.58;53.71;100879.91;2074210;28;46234;-61
2023/01/01 02:52:07;;;;;;;;;4.67;4.00;;;;;16.58;53.79;100877.22;2071434;28;46313;-60
2023/01/01 02:53:51;;;;;;;;;5.25;5.00;;;;;16.55;54.12;100882.72;2062478;28;47246;-62
2023/01/01 02:55:11;;;;;;;;;6.00;5.50;;;;;16.55;53.94;100892.56;2023146;29;46525;-63
2023/01/01 02:56:29;;;;;;;;;6.00;5.00;;;;;16.52;54.16;100890.91;2031100;29;46534;-62
2023/01/01 02:57:44;;;;;;;;;6.00;6.00;;;;;16.52;54.22;100890.91;2030308;29;46789;-62
2023/01/01 03:00:18;;;;;;;;;6.00;6.00;;;;;16.52;54.00;100892.72;2026605;29;46872;-61
2023/01/01 03:01:31;;;;;;;;;7.50;4.50;;;;;16.51;54.32;100904.34;2030539;29;47010;-63
2023/01/01 03:03:01;;;;;;;;;6.50;6.50;;;;;16.51;54.20;100893.63;2023207;29;47053;-63
2023/01/01 03:04:11;;;;;;;;;5.25;5.25;;;;;16.52;53.94;100890.03;2030071;29;46528;-61
2023/01/01 03:05:24;;;;;;;;;8.00;6.75;;;;;16.53;53.80;100894.47;2033370;28;46671;-61
2023/01/01 03:06:53;;;;;;;;;9.25;7.25;;;;;16.52;54.24;100887.34;2038061;28;46444;-62
2023/01/01 03:08:14;;;;;;;;;7.25;5.50;;;;;16.51;54.35;100889.13;2022841;29;46423;-63
2023/01/01 03:09:22;;;;;;;;;7.25;5.50;;;;;16.49;54.22;100886.53;2022901;29;46985;-62
2023/01/01 03:10:27;;;;;;;;;5.00;5.00;;;;;16.49;54.42;100889.22;2034531;28;45207;-61
2023/01/01 03:11:42;;;;;;;;;4.75;4.00;;;;;16.49;54.22;100886.53;2061575;28;46517;-61
2023/01/01 03:12:54;;;;;;;;;6.00;4.25;;;;;16.48;54.45;100887.47;2062683;28;46406;-62
2023/01/01 03:14:34;;;;;;;;;7.75;6.00;;;;;16.47;54.27;100896.44;2054293;28;46502;-62
2023/01/01 03:15:34;;;;;;;;;5.25;5.25;;;;;16.46;54.77;100888.47;2046622;28;46993;-61
2023/01/01 03:16:48;;;;;;;;;5.67;5.67;;;;;16.45;54.80;100887.59;2053354;28;46949;-62
2023/01/01 03:18:03;;;;;;;;;6.50;6.50;;;;;16.44;55.00;100879.63;2062254;28;46293;-61
2023/01/01 03:19:16;;;;;;;;;7.75;7.75;;;;;16.44;54.46;100879.63;2062812;28;46367;-62
2023/01/01 03:20:21;;;;;;;;;5.50;5.50;;;;;16.44;54.88;100874.28;2061727;28;46682;-62
2023/01/01 03:21:22;;;;;;;;;5.75;5.75;;;;;16.45;54.48;100870.66;2061379;28;47288;-62
2023/01/01 03:22:30;;;;;;;;;7.00;6.67;;;;;16.46;54.81;100884.00;2054580;28;48307;-61
2023/01/01 03:23:35;;;;;;;;;7.25;5.50;;;;;16.46;54.49;100886.66;2059282;28;46302;-61
2023/01/01 03:24:57;;;;;;;;;5.25;5.00;;;;;16.47;54.75;100900.94;2062782;28;45596;-61
2023/01/01 03:26:03;;;;;;;;;5.25;5.25;;;;;16.47;54.60;100887.53;2061120;28;46538;-61
2023/01/01 03:27:16;;;;;;;;;8.25;7.75;;;;;16.47;54.56;100884.84;2054383;28;47026;-63
2023/01/01 03:28:30;;;;;;;;;7.25;7.25;;;;;16.45;54.94;100901.00;2059520;28;46736;-62
2023/01/01 03:29:34;;;;;;;;;5.75;5.25;;;;;16.45;54.41;100898.31;2088159;27;46685;-62
2023/01/01 03:30:38;;;;;;;;;8.00;6.25;;;;;16.44;55.06;100899.25;2113519;27;46422;-62
2023/01/01 03:31:44;;;;;;;;;8.75;7.75;;;;;16.44;55.15;100904.63;2103640;28;46612;-61
2023/01/01 03:33:02;;;;;;;;;4.00;4.00;;;;;16.43;54.90;100904.69;2102705;28;45889;-61
2023/01/01 03:34:09;;;;;;;;;6.00;6.00;;;;;16.43;55.25;100912.72;2104456;27;46593;-62
2023/01/01 03:35:12;;;;;;;;;8.00;6.00;;;;;16.43;55.14;100899.34;2113134;27;47348;-62
2023/01/01 03:36:23;;;;;;;;;6.00;5.50;;;;;16.44;55.02;100909.97;2108917;27;46377;-61
2023/01/01 03:37:27;;;;;;;;;6.25;6.25;;;;;16.45;55.05;100908.16;2104501;27;46709;-60
2023/01/01 03:38:33;;;;;;;;;5.75;5.75;;;;;16.45;54.96;100908.16;2113569;27;46726;-61
2023/01/01 03:39:40;;;;;;;;;7.25;5.75;;;;;16.46;55.02;100917.94;2113149;27;46574;-62
2023/01/01 03:40:43;;;;;;;;;4.00;4.00;;;;;16.44;55.22;100918.00;2112086;27;45663;-61
2023/01/01 03:42:05;;;;;;;;;6.25;5.00;;;;;16.44;55.10;100915.34;2112720;27;46694;-61
2023/01/01 03:43:13;;;;;;;;;5.50;4.75;;;;;16.44;55.04;100923.38;2095905;28;46522;-61
2023/01/01 03:44:20;;;;;;;;;5.00;3.75;;;;;16.44;55.27;100911.78;2101013;27;46499;-61
2023/01/01 03:45:23;;;;;;;;;3.75;3.75;;;;;16.44;55.02;100927.84;2113450;27;46581;-61
2023/01/01 03:46:28;;;;;;;;;6.75;6.00;;;;;16.44;55.29;100927.84;2113030;27;46634;-61
2023/01/01 03:47:29;;;;;;;;;7.00;5.00;;;;;16.43;55.05;100916.28;2114425;27;46292;-61
2023/01/01 03:48:54;;;;;;;;;8.00;7.00;;;;;16.41;55.10;100920.84;2114956;27;45849;-61
2023/01/01 03:49:50;;;;;;;;;5.25;5.25;;;;;16.40;55.46;100919.09;2097937;28;47225;-61
2023/01/01 03:51:21;;;;;;;;;6.33;5.00;;;;;16.40;55.22;100918.22;2103987;27;46584;-63
2023/01/01 03:52:41;;;;;;;;;5.50;4.75;;;;;16.39;55.38;100916.47;2111047;27;46223;-61
2023/01/01 03:53:43;;;;;;;;;7.25;5.50;;;;;16.39;55.56;100922.72;2112522;27;46859;-61
2023/01/01 03:54:58;;;;;;;;;5.25;5.00;;;;;16.39;55.19;100917.34;2106088;28;46616;-61
2023/01/01 03:56:15;;;;;;;;;7.25;6.25;;;;;16.38;55.52;100914.72;2103922;27;46737;-62
2023/01/01 03:57:25;;;;;;;;;7.00;6.75;;;;;16.37;55.49;100912.97;2102873;27;46881;-62
2023/01/01 03:58:44;;;;;;;;;4.00;4.00;;;;;16.37;55.72;100926.38;2107241;27;46190;-62
2023/01/01 03:59:50;;;;;;;;;9.00;7.00;;;;;16.36;55.51;100925.50;2115036;27;45820;-62
2023/01/01 04:01:00;;;;;;;;;4.00;4.00;;;;;16.37;55.65;100932.59;2113845;27;46278;-62
2023/01/01 04:02:05;;;;;;;;;5.50;5.50;;;;;16.38;55.75;100934.31;2110989;27;47855;-62
2023/01/01 04:03:26;;;;;;;;;4.50;4.50;;;;;16.38;55.72;100941.50;2103978;28;46460;-62
2023/01/01 04:04:27;;;;;;;;;6.00;6.00;;;;;16.38;56.07;100930.78;2097391;28;46930;-61
2023/01/01 04:05:29;;;;;;;;;4.00;4.00;;;;;16.37;55.43;100927.22;2102969;27;47263;-62
2023/01/01 04:06:32;;;;;;;;;0.00;0.00;;;;;16.37;55.46;100927.22;2106416;28;46451;-62
2023/01/01 04:07:33;;;;;;;;;5.00;4.75;;;;;16.36;55.85;100933.53;2106235;27;46040;-61
2023/01/01 04:08:35;;;;;;;;;4.00;4.00;;;;;16.36;55.69;100928.16;2110015;27;46402;-62
2023/01/01 04:09:39;;;;;;;;;5.25;5.25;;;;;16.36;55.71;100940.69;2114482;27;46675;-62
2023/01/01 04:10:48;;;;;;;;;5.75;5.50;;;;;16.34;55.77;100943.44;2106731;27;46875;-61
2023/01/01 04:12:05;;;;;;;;;5.00;5.00;;;;;16.34;55.80;100940.75;2106484;27;46779;-64
2023/01/01 04:13:06;;;;;;;;;5.00;4.25;;;;;16.33;56.11;100947.06;2106574;27;47336;-62
2023/01/01 04:14:06;;;;;;;;;7.00;7.00;;;;;16.33;56.08;100943.50;2105794;28;46516;-63
2023/01/01 04:15:07;;;;;;;;;7.33;6.33;;;;;16.33;55.80;100954.22;2110844;27;45489;-62
2023/01/01 04:16:07;;;;;;;;;6.00;6.00;;;;;16.32;56.02;100949.81;2114910;27;45391;-63
2023/01/01 04:17:09;;;;;;;;;5.00;5.00;;;;;16.32;56.05;100944.44;2106947;27;46257;-61
2023/01/01 04:18:10;;;;;;;;;7.25;5.75;;;;;16.32;55.96;100944.44;2106181;27;46808;-62
2023/01/01 04:19:10;;;;;;;;;8.00;7.00;;;;;16.31;56.35;100946.25;2105736;28;47103;-61
2023/01/01 04:20:11;;;;;;;;;5.67;5.67;;;;;16.32;56.37;100939.97;2113722;27;46673;-63
2023/01/01 04:21:12;;;;;;;;;5.25;4.50;;;;;16.32;56.42;100949.81;2113349;27;47132;-62
2023/01/01 04:22:12;;;;;;;;;5.67;5.33;;;;;16.31;56.43;100950.75;2106048;27;46368;-61
2023/01/01 04:23:12;;;;;;;;;4.67;4.00;;;;;16.28;56.57;100946.38;2108594;27;47108;-62
2023/01/01 04:24:13;;;;;;;;;4.33;4.00;;;;;16.28;56.07;100934.81;2104936;28;45927;-63
2023/01/01 04:25:16;;;;;;;;;6.25;5.75;;;;;16.28;56.31;100943.72;2103226;27;46410;-63
2023/01/01 04:26:16;;;;;;;;;5.25;5.25;;;;;16.27;56.62;100941.97;2103655;28;47932;-63
2023/01/01 04:27:16;;;;;;;;;7.33;6.33;;;;;16.27;56.29;100946.47;2105485;28;46611;-64
2023/01/01 04:28:17;;;;;;;;;4.67;4.67;;;;;16.24;56.46;100943.88;2112471;27;46199;-62
2023/01/01 04:29:18;;;;;;;;;1.00;1.00;;;;;16.26;56.52;100958.06;2103281;27;46321;-63
2023/01/01 04:30:18;;;;;;;;;4.50;4.50;;;;;16.26;56.45;100947.34;2105146;27;46472;-61
2023/01/01 04:31:19;;;;;;;;;4.67;4.67;;;;;16.27;56.50;100963.41;2112360;27;46289;-62
2023/01/01 04:32:19;;;;;;;;;6.67;5.67;;;;;16.27;56.50;100957.16;2113122;27;46378;-62
2023/01/01 04:33:20;;;;;;;;;4.67;4.67;;;;;16.26;56.43;100963.44;2111896;27;46136;-62
2023/01/01 04:34:21;;;;;;;;;4.50;4.50;;;;;16.24;56.68;100955.47;2110707;27;45838;-62
2023/01/01 04:35:21;;;;;;;;;5.33;5.33;;;;;16.24;56.42;100950.09;2106243;28;45071;-63
2023/01/01 04:36:21;;;;;;;;;6.00;6.00;;;;;16.23;56.54;100959.06;2097642;28;46033;-63
2023/01/01 04:37:22;;;;;;;;;6.67;6.67;;;;;16.24;56.68;100957.28;2090292;28;46758;-61
2023/01/01 04:38:25;;;;;;;;;7.00;5.00;;;;;16.23;56.71;100958.22;2105025;27;46727;-62
2023/01/01 04:39:25;;;;;;;;;5.50;5.50;;;;;16.22;56.58;100953.78;2112018;27;46840;-62
2023/01/01 04:40:26;;;;;;;;;6.00;6.00;;;;;16.20;56.94;100953.84;2113635;27;46313;-62
2023/01/01 04:41:26;;;;;;;;;6.00;6.00;;;;;16.21;56.82;100954.72;2103804;28;45811;-61
2023/01/01 04:42:26;;;;;;;;;9.00;7.00;;;;;16.22;56.69;100956.47;2103057;28;46463;-63
2023/01/01 04:43:28;;;;;;;;;6.33;6.33;;;;;16.22;56.76;100953.78;2115000;27;46270;-62
2023/01/01 04:44:28;;;;;;;;;4.00;4.00;;;;;16.21;56.92;100952.91;2112391;27;46252;-62
2023/01/01 04:45:28;;;;;;;;;8.67;6.67;;;;;16.20;57.05;100956.53;2113543;27;46460;-62
2023/01/01 04:46:29;;;;;;;;;4.67;4.67;;;;;16.21;56.80;100960.09;2113647;27;46722;-61
2023/01/01 04:47:29;;;;;;;;;3.33;3.33;;;;;16.21;57.04;100966.31;2112560;27;46379;-61
2023/01/01 04:48:30;;;;;;;;;6.33;5.00;;;;;16.19;56.75;100953.00;2114014;27;46402;-61
2023/01/01 04:49:31;;;;;;;;;7.50;6.25;;;;;16.23;56.65;100958.22;2113268;27;47002;-62
2023/01/01 04:50:31;;;;;;;;;6.67;5.67;;;;;16.22;56.73;100953.78;2112247;27;45558;-62
2023/01/01 04:51:31;;;;;;;;;5.67;5.00;;;;;16.21;56.75;100950.25;2106328;27;46732;-61
2023/01/01 04:52:32;;;;;;;;;7.33;5.00;;;;;16.21;56.72;100960.94;2111160;27;46046;-61
2023/01/01 04:53:34;;;;;;;;;6.00;6.00;;;;;16.19;57.21;100953.00;2102915;28;45276;-61
2023/01/01 04:54:34;;;;;;;;;6.75;5.00;;;;;16.18;56.99;100948.56;2105358;27;47115;-62
2023/01/01 04:55:34;;;;;;;;;4.33;4.33;;;;;16.18;56.89;100961.09;2112356;27;46563;-61
2023/01/01 04:56:35;;;;;;;;;6.00;4.00;;;;;16.19;57.29;100962.81;2106135;27;45997;-62
2023/01/01 04:57:35;;;;;;;;;5.67;5.67;;;;;16.20;57.20;100964.56;2106070;28;46334;-62
2023/01/01 04:58:38;;;;;;;;;5.33;5.33;;;;;16.19;57.35;100965.50;2108673;27;45964;-62
2023/01/01 04:59:38;;;;;;;;;5.00;5.00;;;;;16.16;57.00;100963.81;2114668;27;46240;-62
2023/01/01 05:00:38;;;;;;;;;5.67;5.00;;;;;16.18;57.12;100971.78;2112679;27;46652;-61
2023/01/01 05:01:39;;;;;;;;;5.00;5.00;;;;;16.16;57.00;100969.19;2114077;27;46469;-62
2023/01/01 05:02:39;;;;;;;;;6.67;5.67;;;;;16.16;57.26;100976.34;2114526;27;46201;-63
2023/01/01 05:03:39;;;;;;;;;7.00;5.00;;;;;16.15;57.34;100961.22;2105679;27;46463;-61
2023/01/01 05:04:40;;;;;;;;;5.00;5.00;;;;;16.15;57.09;100964.75;2105774;27;46090;-61